Terminal Aerodrome Forecast
Issued by NWS Amarillo, TX

Current Version | Previous Version | Text Only | Print | Product List | Glossary Off
Versions: 1 2 3 4 5 6 7 8 9 10 11 12 13 14 15 16 17 18 19

000
FTUS44 KAMA 250535
TAFDHT
TAF
KDHT 250535Z 2506/2606 01023G33KT P6SM SCT015 OVC040
      TEMPO 2507/2511 -SHRA OVC015
     FM251100 36018G28KT P6SM SCT015 OVC040
     FM251500 35013KT P6SM SKC
     FM260100 VRB06KT P6SM SKC=

USA.gov is the U.S. government's official web portal to all federal, state and local government web resources and services.